Time;durP1;ratioP1;P1;durP2;ratioP2;P2;SDS_P1;SDS_P2;PMS_P1;PMS_P2;Temp;Humidity;BMP_temperature;BMP_pressure;BME280_temperature;BME280_humidity;BME280_pressure;Samples;Min_cycle;Max_cycle;Signal;HPM_P1;HPM_P2
2021/09/16 00:00:09;;;;;;;29.67;13.20;;;;;;;12.82;51.10;100495.64;1721459;82;20896;-65
2021/09/16 00:02:38;;;;;;;36.45;15.85;;;;;;;12.81;51.03;100496.17;1722314;82;21852;-62
2021/09/16 00:05:06;;;;;;;32.98;14.53;;;;;;;12.82;51.12;100500.48;1718603;82;21015;-62
2021/09/16 00:07:35;;;;;;;37.55;15.45;;;;;;;12.80;51.11;100495.87;1722554;82;21567;-62
2021/09/16 00:10:04;;;;;;;38.55;17.40;;;;;;;12.78;51.10;100497.98;1717689;82;21054;-62
2021/09/16 00:12:33;;;;;;;41.83;16.07;;;;;;;12.75;51.20;100497.91;1720446;82;21512;-64
2021/09/16 00:14:59;;;;;;;33.88;15.35;;;;;;;12.71;51.37;100498.59;1724371;82;21540;-65
2021/09/16 00:17:28;;;;;;;35.95;15.65;;;;;;;12.67;51.49;100494.19;1723605;82;20991;-63
2021/09/16 00:19:56;;;;;;;30.37;13.43;;;;;;;12.66;51.63;100498.45;1723201;82;20940;-63
2021/09/16 00:22:23;;;;;;;30.37;12.30;;;;;;;12.64;51.60;100502.71;1721791;82;21596;-63
2021/09/16 00:24:50;;;;;;;29.72;12.43;;;;;;;12.62;51.50;100506.98;1722625;82;21018;-61
2021/09/16 00:27:17;;;;;;;27.62;13.22;;;;;;;12.60;51.54;100503.70;1725485;82;21155;-61
2021/09/16 00:29:44;;;;;;;30.05;12.60;;;;;;;12.60;51.47;100504.21;1720802;82;21019;-64
2021/09/16 00:32:11;;;;;;;31.93;14.23;;;;;;;12.58;51.63;100507.13;1728160;82;20950;-60
2021/09/16 00:34:39;;;;;;;27.30;12.85;;;;;;;12.56;51.72;100501.17;1715302;82;21094;-61
2021/09/16 00:37:06;;;;;;;30.23;13.48;;;;;;;12.56;51.77;100507.08;1690602;83;21042;-62
2021/09/16 00:39:33;;;;;;;29.45;12.58;;;;;;;12.54;51.88;100503.25;1686070;83;21150;-61
2021/09/16 00:42:01;;;;;;;30.43;13.62;;;;;;;12.52;51.88;100497.83;1690132;83;20930;-61
2021/09/16 00:44:28;;;;;;;26.37;12.20;;;;;;;12.50;51.93;100495.36;1685742;83;21009;-62
2021/09/16 00:46:55;;;;;;;24.23;12.07;;;;;;;12.47;51.97;100495.83;1691461;83;21472;-62
2021/09/16 00:49:23;;;;;;;22.25;11.38;;;;;;;12.45;52.15;100501.94;1690191;83;20958;-62
2021/09/16 00:51:50;;;;;;;22.05;12.05;;;;;;;12.43;52.18;100500.01;1686962;83;21126;-62
2021/09/16 00:54:18;;;;;;;25.52;12.93;;;;;;;12.41;52.27;100496.70;1664730;83;21046;-63
2021/09/16 00:56:47;;;;;;;28.55;13.68;;;;;;;12.39;52.52;100496.94;1659095;85;20986;-62
2021/09/16 00:59:18;;;;;;;30.17;14.18;;;;;;;12.37;52.47;100496.36;1690324;83;21498;-61
2021/09/16 01:01:45;;;;;;;33.48;17.75;;;;;;;12.35;52.50;100501.15;1686287;83;21078;-62
2021/09/16 01:04:12;;;;;;;45.73;21.82;;;;;;;12.33;52.69;100503.22;1688283;83;21131;-61
2021/09/16 01:06:41;;;;;;;47.08;20.65;;;;;;;12.32;52.68;100493.51;1694405;83;20942;-62
2021/09/16 01:09:12;;;;;;;39.78;19.55;;;;;;;12.31;52.61;100494.58;1681099;83;20935;-62
2021/09/16 01:11:41;;;;;;;45.75;20.52;;;;;;;12.29;52.73;100496.66;1691732;83;21493;-62
2021/09/16 01:14:10;;;;;;;46.00;20.82;;;;;;;12.27;52.70;100496.88;1666181;84;21488;-64
2021/09/16 01:16:38;;;;;;;40.50;20.45;;;;;;;12.26;52.81;100499.30;1689082;83;20963;-62
2021/09/16 01:19:06;;;;;;;42.20;19.53;;;;;;;12.26;52.98;100498.45;1688268;83;21053;-63
2021/09/16 01:21:35;;;;;;;32.17;17.90;;;;;;;12.25;52.93;100498.98;1696125;83;20939;-63
2021/09/16 01:24:02;;;;;;;29.45;15.30;;;;;;;12.24;52.98;100503.25;1691806;83;20979;-61
2021/09/16 01:26:30;;;;;;;27.05;12.90;;;;;;;12.23;52.74;100500.25;1686487;83;20990;-63
2021/09/16 01:28:58;;;;;;;23.87;12.20;;;;;;;12.21;52.65;100505.05;1687664;83;21148;-63
2021/09/16 01:31:37;;;;;;;28.30;13.30;;;;;;;12.20;52.65;100506.08;1691156;83;21462;-62
2021/09/16 01:34:05;;;;;;;27.95;14.05;;;;;;;12.19;52.61;100505.77;1685819;83;21070;-61
2021/09/16 01:36:33;;;;;;;25.13;12.57;;;;;;;12.17;52.64;100509.22;1712645;82;20939;-61
2021/09/16 01:39:00;;;;;;;25.92;12.15;;;;;;;12.14;52.50;100510.48;1720660;82;20954;-61
2021/09/16 01:41:27;;;;;;;23.25;11.97;;;;;;;12.09;52.41;100513.04;1697819;82;21128;-61
2021/09/16 01:43:54;;;;;;;27.85;12.60;;;;;;;12.05;52.46;100513.19;1692539;83;20999;-61
2021/09/16 01:46:22;;;;;;;26.42;12.98;;;;;;;12.01;52.46;100511.45;1724539;82;21500;-62
2021/09/16 01:48:49;;;;;;;32.20;13.85;;;;;;;11.99;52.64;100513.55;1725365;82;21007;-60
2021/09/16 01:51:16;;;;;;;30.75;12.10;;;;;;;11.97;52.75;100513.47;1706953;82;20970;-62
2021/09/16 01:53:44;;;;;;;28.67;12.18;;;;;;;11.95;52.61;100511.00;1726049;82;21411;-62
2021/09/16 01:56:13;;;;;;;27.82;12.23;;;;;;;11.92;52.67;100514.11;1725993;82;21529;-60
2021/09/16 01:58:41;;;;;;;24.92;10.82;;;;;;;11.88;52.76;100508.37;1718753;82;20959;-60
2021/09/16 02:01:10;;;;;;;21.07;11.15;;;;;;;11.84;52.91;100510.39;1731381;82;21029;-60
2021/09/16 02:03:37;;;;;;;24.30;11.28;;;;;;;11.81;53.01;100514.87;1720966;82;21002;-60
2021/09/16 02:06:05;;;;;;;22.35;10.03;;;;;;;11.79;53.02;100520.44;1725630;82;21156;-59
2021/09/16 02:08:32;;;;;;;28.80;11.75;;;;;;;11.75;53.00;100516.58;1722610;82;20963;-61
2021/09/16 02:11:01;;;;;;;28.20;12.18;;;;;;;11.73;53.07;100518.64;1724315;82;20919;-62
2021/09/16 02:13:28;;;;;;;23.47;10.88;;;;;;;11.71;53.05;100518.87;1720883;82;20932;-59
2021/09/16 02:15:56;;;;;;;24.18;10.80;;;;;;;11.69;53.17;100520.97;1720389;83;20947;-60
2021/09/16 02:18:23;;;;;;;18.07;10.18;;;;;;;11.68;53.29;100522.53;1724246;82;21153;-61
2021/09/16 02:20:49;;;;;;;18.05;10.08;;;;;;;11.66;53.23;100523.26;1705904;81;21022;-63
2021/09/16 02:23:17;;;;;;;25.57;11.28;;;;;;;11.65;53.30;100524.32;1697163;82;20977;-63
2021/09/16 02:25:44;;;;;;;24.12;10.93;;;;;;;11.63;53.26;100519.17;1725948;82;20971;-62
2021/09/16 02:28:10;;;;;;;22.20;11.08;;;;;;;11.62;53.43;100520.20;1721010;82;21081;-62
2021/09/16 02:30:39;;;;;;;26.97;11.38;;;;;;;11.61;53.36;100514.52;1697091;83;20950;-62
2021/09/16 02:33:06;;;;;;;25.35;12.18;;;;;;;11.61;53.60;100515.87;1716443;83;21002;-62
2021/09/16 02:35:33;;;;;;;28.73;12.43;;;;;;;11.61;53.67;100515.06;1722376;83;20935;-63
2021/09/16 02:38:01;;;;;;;24.52;12.37;;;;;;;11.60;53.69;100512.06;1728664;81;21524;-60
2021/09/16 02:40:28;;;;;;;34.98;11.88;;;;;;;11.59;53.69;100511.25;1726948;81;20978;-62
2021/09/16 02:42:55;;;;;;;25.82;11.93;;;;;;;11.56;53.74;100507.14;1697755;83;21156;-61
2021/09/16 02:45:23;;;;;;;32.50;13.35;;;;;;;11.55;53.73;100511.39;1729533;81;20998;-61
2021/09/16 02:47:50;;;;;;;27.58;13.68;;;;;;;11.55;53.76;100512.73;1726514;83;20958;-61
2021/09/16 02:50:16;;;;;;;28.15;12.53;;;;;;;11.55;54.00;100509.52;1720409;83;21077;-60
2021/09/16 02:52:45;;;;;;;29.40;12.68;;;;;;;11.56;53.95;100515.20;1698485;83;21421;-60
2021/09/16 02:55:12;;;;;;;28.55;13.00;;;;;;;11.55;53.93;100516.23;1726725;83;21147;-60
2021/09/16 02:57:39;;;;;;;39.45;13.95;;;;;;;11.55;54.06;100514.88;1726922;83;21125;-60
2021/09/16 03:00:08;;;;;;;28.20;13.35;;;;;;;11.54;54.10;100519.98;1725631;81;20915;-61
2021/09/16 03:02:35;;;;;;;29.77;14.23;;;;;;;11.54;54.07;100520.48;1739444;81;21591;-61
2021/09/16 03:05:03;;;;;;;31.50;14.10;;;;;;;11.52;54.10;100522.04;1743237;81;21077;-60
2021/09/16 03:07:30;;;;;;;33.60;14.40;;;;;;;11.48;54.07;100523.52;1737678;81;21588;-62
2021/09/16 03:09:57;;;;;;;35.48;13.22;;;;;;;11.47;54.19;100524.58;1742020;81;20974;-61
2021/09/16 03:12:24;;;;;;;33.90;14.85;;;;;;;11.45;54.27;100523.95;1699258;81;20930;-60
2021/09/16 03:14:53;;;;;;;36.63;15.68;;;;;;;11.45;54.10;100519.13;1696849;81;21021;-59
2021/09/16 03:17:21;;;;;;;32.70;16.07;;;;;;;11.43;54.04;100518.53;1741895;81;20997;-60
2021/09/16 03:19:50;;;;;;;31.37;15.13;;;;;;;11.40;54.24;100517.91;1677347;81;24933;-60
2021/09/16 03:22:18;;;;;;;34.53;15.25;;;;;;;11.40;54.29;100515.23;1715022;81;20947;-60
2021/09/16 03:24:45;;;;;;;33.95;15.50;;;;;;;11.41;54.23;100518.75;1699213;81;20930;-61
2021/09/16 03:27:12;;;;;;;36.23;16.27;;;;;;;11.43;54.25;100516.66;1737917;81;20966;-61
2021/09/16 03:29:39;;;;;;;36.25;16.67;;;;;;;11.47;54.40;100517.03;1735758;81;21050;-63
2021/09/16 03:32:08;;;;;;;38.03;15.90;;;;;;;11.51;54.21;100516.89;1700802;81;21343;-62
2021/09/16 03:34:35;;;;;;;41.95;16.73;;;;;;;11.53;54.22;100521.54;1720700;81;21299;-60
2021/09/16 03:37:03;;;;;;;29.80;14.83;;;;;;;11.57;54.29;100524.06;1731517;81;21074;-60
2021/09/16 03:39:30;;;;;;;36.80;15.83;;;;;;;11.61;54.09;100519.89;1730016;82;21508;-60
2021/09/16 03:41:58;;;;;;;34.25;14.07;;;;;;;11.67;54.17;100523.56;1737393;82;21217;-62
2021/09/16 03:44:25;;;;;;;33.48;14.28;;;;;;;11.73;53.98;100522.67;1693940;82;21261;-61
2021/09/16 03:46:53;;;;;;;23.57;12.25;;;;;;;11.79;53.95;100529.84;1727087;82;21034;-60
2021/09/16 03:49:20;;;;;;;26.30;12.60;;;;;;;11.84;53.93;100523.30;1732507;82;21029;-63
2021/09/16 03:51:47;;;;;;;25.65;11.97;;;;;;;11.90;53.87;100525.08;1735111;82;21027;-61
2021/09/16 03:54:14;;;;;;;28.70;11.88;;;;;;;11.98;53.83;100524.52;1730453;82;21489;-60
2021/09/16 03:56:41;;;;;;;22.37;11.43;;;;;;;12.05;53.84;100530.65;1725098;82;21179;-61
2021/09/16 03:59:09;;;;;;;28.15;12.58;;;;;;;12.10;53.79;100533.47;1732979;82;20974;-61
2021/09/16 04:01:38;;;;;;;28.35;12.23;;;;;;;12.15;53.95;100528.80;1730006;82;20884;-60
2021/09/16 04:04:07;;;;;;;28.38;13.80;;;;;;;12.19;54.09;100527.27;1725326;82;20911;-61
2021/09/16 04:06:34;;;;;;;25.95;12.50;;;;;;;12.24;54.20;100526.91;1728213;82;21171;-61
2021/09/16 04:09:03;;;;;;;24.50;11.70;;;;;;;12.30;54.31;100531.09;1725947;82;20962;-60
2021/09/16 04:11:30;;;;;;;25.60;12.03;;;;;;;12.33;54.08;100530.64;1726524;82;21042;-59
2021/09/16 04:13:59;;;;;;;28.62;13.32;;;;;;;12.38;54.24;100534.80;1727598;82;20955;-62
2021/09/16 04:16:26;;;;;;;30.35;13.15;;;;;;;12.43;54.27;100538.99;1732166;82;21030;-61
2021/09/16 04:18:53;;;;;;;27.65;13.90;;;;;;;12.47;54.33;100542.88;1726811;82;22083;-64
2021/09/16 04:21:20;;;;;;;28.70;13.20;;;;;;;12.51;54.32;100546.73;1728236;82;21090;-62
2021/09/16 04:23:49;;;;;;;25.92;13.95;;;;;;;12.56;54.20;100551.45;1735406;82;20975;-63
2021/09/16 04:26:17;;;;;;;31.97;14.13;;;;;;;12.58;54.17;100551.50;1736576;82;20911;-62
2021/09/16 04:28:44;;;;;;;26.33;13.38;;;;;;;12.61;54.03;100547.55;1733572;82;21487;-63
2021/09/16 04:31:11;;;;;;;24.75;13.35;;;;;;;12.62;54.14;100551.35;1690107;82;20994;-62
2021/09/16 04:33:38;;;;;;;29.10;13.32;;;;;;;12.66;54.08;100545.02;1738030;82;21807;-62
2021/09/16 04:36:05;;;;;;;28.27;14.20;;;;;;;12.68;54.29;100548.81;1729850;82;20935;-61
2021/09/16 04:38:32;;;;;;;38.63;14.05;;;;;;;12.73;54.44;100551.63;1727275;82;21509;-63
2021/09/16 04:40:59;;;;;;;31.30;13.85;;;;;;;12.78;54.43;100547.21;1732392;82;20907;-60
2021/09/16 04:43:26;;;;;;;30.90;12.68;;;;;;;12.83;54.28;100546.52;1731727;82;20907;-61
2021/09/16 04:45:55;;;;;;;29.85;12.50;;;;;;;12.88;54.11;100549.36;1708773;82;21414;-60
2021/09/16 04:48:22;;;;;;;27.40;12.60;;;;;;;12.92;53.99;100554.55;1719825;81;21513;-64
2021/09/16 04:50:49;;;;;;;25.15;13.00;;;;;;;12.97;54.01;100556.05;1729292;81;20938;-61
2021/09/16 04:53:17;;;;;;;25.72;12.68;;;;;;;13.03;53.89;100558.35;1695222;82;21535;-62
2021/09/16 04:55:45;;;;;;;25.23;13.10;;;;;;;13.10;53.81;100556.39;1730158;82;20953;-61
2021/09/16 04:58:12;;;;;;;24.80;12.50;;;;;;;13.22;53.62;100555.06;1696731;83;21799;-61
2021/09/16 05:00:39;;;;;;;30.10;12.40;;;;;;;13.39;53.40;100551.73;1716509;83;20947;-60
2021/09/16 05:03:06;;;;;;;31.27;13.48;;;;;;;13.65;52.82;100552.62;1716521;83;21527;-63
2021/09/16 05:05:33;;;;;;;33.95;15.48;;;;;;;14.08;52.17;100553.30;1716504;83;20987;-60
2021/09/16 05:08:00;;;;;;;27.82;13.22;;;;;;;14.56;51.25;100556.71;1694863;83;20979;-62
2021/09/16 05:10:27;;;;;;;25.57;12.85;;;;;;;14.89;50.51;100553.84;1697647;83;21207;-63
2021/09/16 05:12:56;;;;;;;46.92;15.50;;;;;;;15.14;49.60;100544.55;1716956;83;21525;-61
2021/09/16 05:15:25;;;;;;;27.22;12.45;;;;;;;15.38;49.33;100548.72;1716618;82;20967;-60
2021/09/16 05:17:53;;;;;;;26.10;12.28;;;;;;;15.85;48.31;100541.35;1716169;83;21482;-61
2021/09/16 05:20:21;;;;;;;30.43;13.50;;;;;;;16.51;46.65;100537.86;1717136;82;21038;-60
2021/09/16 05:22:49;;;;;;;29.45;12.73;;;;;;;17.24;45.42;100548.33;1716668;83;21428;-60
2021/09/16 05:25:17;;;;;;;28.15;13.75;;;;;;;18.47;43.19;100553.16;1716820;83;20948;-59
2021/09/16 05:27:45;;;;;;;26.87;13.25;;;;;;;19.97;40.78;100545.91;1716724;83;20998;-61
2021/09/16 05:30:14;;;;;;;24.30;13.43;;;;;;;21.58;37.46;100544.67;1716870;82;21273;-60
2021/09/16 05:32:40;;;;;;;26.55;12.37;;;;;;;22.99;34.96;100543.48;1716778;83;21094;-62
2021/09/16 05:35:09;;;;;;;22.55;11.70;;;;;;;24.27;32.59;100547.23;1716273;83;21130;-60
2021/09/16 05:37:38;;;;;;;23.35;12.53;;;;;;;25.42;30.75;100541.61;1712289;83;21565;-61
2021/09/16 05:40:07;;;;;;;27.50;12.43;;;;;;;26.50;29.16;100544.67;1716740;82;21896;-60
2021/09/16 05:42:36;;;;;;;21.40;12.18;;;;;;;27.48;27.43;100552.61;1716701;83;21007;-60
2021/09/16 05:45:06;;;;;;;27.22;13.08;;;;;;;28.26;26.28;100555.61;1716286;82;20955;-61
2021/09/16 05:47:33;;;;;;;22.35;12.25;;;;;;;29.00;25.36;100562.39;1716985;83;21148;-60
2021/09/16 05:50:00;;;;;;;23.95;12.95;;;;;;;29.65;24.62;100556.39;1716003;82;21447;-59
2021/09/16 05:52:27;;;;;;;21.70;12.68;;;;;;;30.23;23.51;100557.67;1718882;82;20944;-60
2021/09/16 05:54:54;;;;;;;28.43;11.93;;;;;;;30.65;23.27;100553.81;1716400;82;21540;-64
2021/09/16 05:57:21;;;;;;;21.73;11.65;;;;;;;31.05;22.67;100557.17;1715279;82;21212;-59
2021/09/16 05:59:47;;;;;;;23.87;12.23;;;;;;;31.47;22.10;100553.13;1698986;82;21580;-62
2021/09/16 06:02:15;;;;;;;24.07;13.10;;;;;;;31.90;21.63;100552.83;1691857;83;20990;-62
2021/09/16 06:04:42;;;;;;;28.32;12.98;;;;;;;32.35;21.36;100556.28;1696626;83;21520;-60
2021/09/16 06:07:09;;;;;;;21.52;12.47;;;;;;;32.80;20.93;100561.84;1715214;82;21083;-59
2021/09/16 06:09:36;;;;;;;26.37;12.40;;;;;;;33.19;20.58;100559.01;1716436;82;21540;-61
2021/09/16 06:12:07;;;;;;;23.30;12.80;;;;;;;33.59;20.28;100562.52;1715384;82;21134;-60
2021/09/16 06:14:35;;;;;;;23.50;12.63;;;;;;;34.32;19.25;100561.71;1712098;82;21057;-59
2021/09/16 06:17:04;;;;;;;24.05;10.65;;;;;;;34.32;19.25;100561.71;1692715;83;21101;-60
2021/09/16 06:19:31;;;;;;;27.90;11.18;;;;;;;34.60;18.97;100555.75;1713039;82;21574;-60
2021/09/16 06:21:59;;;;;;;26.27;9.90;;;;;;;34.87;18.46;100568.23;1715973;82;20891;-61
2021/09/16 06:24:26;;;;;;;25.02;10.00;;;;;;;34.97;18.52;100560.59;1716915;82;21190;-60
2021/09/16 06:26:54;;;;;;;21.45;10.38;;;;;;;35.31;18.10;100559.75;1714260;82;20958;-62
2021/09/16 06:29:21;;;;;;;19.57;8.38;;;;;;;35.59;17.59;100557.23;1715866;82;20962;-61
2021/09/16 06:31:48;;;;;;;16.48;8.83;;;;;;;35.74;16.96;100560.15;1717491;82;21023;-61
2021/09/16 06:34:16;;;;;;;15.32;8.23;;;;;;;35.58;16.81;100554.23;1721200;82;21070;-61
2021/09/16 06:36:43;;;;;;;15.83;9.60;;;;;;;35.05;17.23;100553.11;1718087;82;21135;-61
2021/09/16 06:39:11;;;;;;;19.55;9.90;;;;;;;34.66;17.84;100555.63;1715233;82;21003;-61
2021/09/16 06:41:38;;;;;;;16.23;8.68;;;;;;;34.44;18.19;100555.11;1687647;82;20963;-61
2021/09/16 06:44:05;;;;;;;20.65;9.08;;;;;;;34.40;18.00;100544.74;1716612;82;20951;-62
2021/09/16 06:46:32;;;;;;;13.08;7.58;;;;;;;34.44;17.94;100546.77;1714410;82;20919;-62
2021/09/16 06:48:59;;;;;;;19.82;6.72;;;;;;;34.41;17.24;100541.39;1715601;82;21153;-60
2021/09/16 06:51:26;;;;;;;10.72;5.08;;;;;;;34.32;17.31;100535.28;1692774;82;21461;-63
2021/09/16 06:53:55;;;;;;;11.53;7.05;;;;;;;34.17;16.80;100537.86;1713008;82;21013;-63
2021/09/16 06:56:22;;;;;;;12.37;7.30;;;;;;;34.07;16.99;100545.45;1714164;82;21127;-61
2021/09/16 06:58:51;;;;;;;14.28;8.53;;;;;;;33.96;16.88;100542.50;1713239;82;21046;-61
2021/09/16 07:01:18;;;;;;;18.15;10.00;;;;;;;33.84;17.14;100543.51;1715681;82;21108;-60
2021/09/16 07:03:47;;;;;;;18.62;8.63;;;;;;;33.81;17.65;100547.03;1717731;82;20884;-61
2021/09/16 07:06:14;;;;;;;13.98;6.92;;;;;;;33.87;17.34;100545.54;1716943;82;20990;-60
2021/09/16 07:08:43;;;;;;;18.50;8.08;;;;;;;33.81;16.70;100547.03;1718639;82;20974;-61
2021/09/16 07:11:10;;;;;;;16.37;7.75;;;;;;;33.71;16.98;100549.81;1714607;82;21073;-60
2021/09/16 07:13:40;;;;;;;13.38;6.42;;;;;;;33.63;16.91;100553.67;1715425;82;20959;-58
2021/09/16 07:16:08;;;;;;;10.23;6.25;;;;;;;32.65;16.47;100556.52;1714730;82;20983;-60
2021/09/16 07:18:37;;;;;;;13.85;6.90;;;;;;;32.65;16.47;100556.52;1695177;82;20995;-60
2021/09/16 07:21:04;;;;;;;24.92;7.15;;;;;;;31.91;17.21;100559.20;1717373;82;20990;-60
2021/09/16 07:23:33;;;;;;;11.08;6.70;;;;;;;31.28;18.28;100559.35;1704638;83;20958;-60
2021/09/16 07:26:00;;;;;;;;;;;;;;;30.69;19.19;100556.70;1721003;82;21197;-60
2021/09/16 07:28:34;;;;;;;13.10;6.17;;;;;;;30.12;19.47;100555.73;1714692;81;20132;-61
2021/09/16 07:31:00;;;;;;;12.15;6.55;;;;;;;29.39;19.11;100559.44;1719627;82;21006;-61
2021/09/16 07:33:27;;;;;;;15.08;7.00;;;;;;;28.66;19.52;100564.85;1729022;82;20919;-62
2021/09/16 07:35:54;;;;;;;11.22;6.33;;;;;;;28.03;20.41;100565.52;1726269;82;21061;-65
2021/09/16 07:38:21;;;;;;;18.25;8.23;;;;;;;27.62;20.76;100562.27;1722371;82;21122;-61
2021/09/16 07:40:48;;;;;;;15.70;6.92;;;;;;;27.29;21.35;100563.38;1694933;83;21037;-61
2021/09/16 07:46:33;;;;;;;12.13;6.83;;;;;;;26.49;22.46;100565.86;1712474;82;21018;-59
2021/09/16 07:53:09;;;;;;;18.70;7.33;;;;;;;25.66;23.16;100569.27;1715220;82;20995;-61
2021/09/16 07:59:29;;;;;;;15.32;7.12;;;;;;;25.40;23.98;100560.88;1714266;82;20947;-60
2021/09/16 08:05:27;;;;;;;13.20;7.20;;;;;;;25.39;23.90;100556.53;1716918;82;20939;-61
2021/09/16 08:11:48;;;;;;;10.98;5.60;;;;;;;25.36;23.58;100545.05;1716626;82;20879;-60
2021/09/16 08:17:46;;;;;;;15.13;6.03;;;;;;;25.25;23.29;100540.94;1715979;82;20907;-62
2021/09/16 08:23:45;;;;;;;19.17;6.00;;;;;;;24.89;23.93;100542.36;1715221;82;21038;-61
2021/09/16 08:29:42;;;;;;;20.80;8.13;;;;;;;24.41;24.85;100543.66;1713735;82;20946;-60
2021/09/16 08:35:42;;;;;;;22.15;7.90;;;;;;;23.96;26.28;100537.48;1717148;82;20994;-59
2021/09/16 08:41:43;;;;;;;17.98;7.15;;;;;;;23.81;27.34;100539.94;1715178;82;20970;-61
2021/09/16 08:47:43;;;;;;;13.68;7.03;;;;;;;23.80;27.80;100539.67;1719128;82;20977;-59
2021/09/16 08:54:04;;;;;;;17.90;7.40;;;;;;;23.98;27.93;100536.61;1715995;82;21054;-62
2021/09/16 09:00:00;;;;;;;13.58;6.28;;;;;;;23.90;28.40;100535.97;1716650;82;21026;-60
2021/09/16 09:06:38;;;;;;;8.00;4.35;;;;;;;23.78;28.41;100539.97;1718836;82;21025;-62
2021/09/16 09:12:35;;;;;;;9.18;3.80;;;;;;;23.69;27.59;100540.97;1710589;82;21558;-60
2021/09/16 09:19:17;;;;;;;6.03;2.90;;;;;;;23.54;27.17;100550.27;1717133;82;20990;-60
2021/09/16 09:25:17;;;;;;;7.45;2.83;;;;;;;23.44;26.60;100546.61;1717230;82;20963;-60
2021/09/16 09:31:22;;;;;;;5.85;1.95;;;;;;;23.08;27.69;100547.73;1711376;82;21509;-60
2021/09/16 09:37:19;;;;;;;4.45;2.60;;;;;;;22.69;28.12;100545.58;1704727;82;20994;-62
2021/09/16 09:43:35;;;;;;;6.75;1.75;;;;;;;22.66;28.62;100544.81;1677139;83;21521;-61
2021/09/16 09:46:17;;;;;;;5.37;1.98;;;;;;;22.71;28.01;100545.28;1674482;83;21005;-61
2021/09/16 09:49:05;;;;;;;6.28;2.30;;;;;;;22.69;27.78;100544.22;1676912;83;20955;-61
2021/09/16 09:51:57;;;;;;;4.33;1.45;;;;;;;22.68;28.13;100534.95;1685512;83;21563;-60
2021/09/16 09:54:33;;;;;;;5.90;2.62;;;;;;;22.71;28.09;100537.89;1678763;83;21989;-60
2021/09/16 09:57:12;;;;;;;5.70;2.90;;;;;;;22.55;27.21;100534.56;1679279;83;20927;-60
2021/09/16 10:00:00;;;;;;;6.15;2.15;;;;;;;22.43;28.23;100530.09;1677561;83;21453;-61
2021/09/16 10:02:34;;;;;;;3.55;2.10;;;;;;;22.43;27.70;100519.17;1664014;83;20981;-60
2021/09/16 10:05:01;;;;;;;4.05;1.90;;;;;;;22.35;28.03;100526.67;1679988;83;21014;-62
2021/09/16 10:07:32;;;;;;;2.65;1.75;;;;;;;22.35;28.64;100521.21;1679322;83;21156;-63
2021/09/16 10:10:01;;;;;;;3.90;1.62;;;;;;;22.39;27.97;100526.32;1656554;84;21046;-61
2021/09/16 10:12:28;;;;;;;2.17;1.37;;;;;;;22.41;27.79;100518.66;1679354;83;21000;-60
2021/09/16 10:14:56;;;;;;;2.83;1.43;;;;;;;22.34;27.60;100523.11;1677249;83;22470;-61
2021/09/16 10:17:23;;;;;;;3.50;1.37;;;;;;;22.25;28.09;100517.22;1683221;83;21037;-61
2021/09/16 10:19:53;;;;;;;6.85;1.40;;;;;;;22.28;28.56;100517.44;1682092;83;21026;-62
2021/09/16 10:22:20;;;;;;;4.72;1.50;;;;;;;22.37;28.98;100514.89;1679852;83;21025;-59
2021/09/16 10:24:47;;;;;;;2.12;1.15;;;;;;;22.48;28.63;100515.02;1679424;83;20947;-60
2021/09/16 10:27:40;;;;;;;2.92;1.12;;;;;;;22.53;27.81;100505.37;1679237;84;21034;-59
2021/09/16 10:30:28;;;;;;;1.72;0.80;;;;;;;22.56;27.54;100512.17;1679649;85;21045;-59
2021/09/16 10:33:18;;;;;;;2.17;0.98;;;;;;;22.53;27.53;100509.47;1677907;85;21716;-60
2021/09/16 10:36:08;;;;;;;2.77;1.95;;;;;;;22.53;28.02;100511.41;1673418;85;21453;-60
2021/09/16 10:38:46;;;;;;;6.95;1.22;;;;;;;22.54;28.24;100508.91;1681044;83;21038;-61
2021/09/16 10:41:29;;;;;;;1.45;1.10;;;;;;;22.60;27.68;100517.84;1680860;85;21029;-59
2021/09/16 10:44:09;;;;;;;4.33;2.10;;;;;;;22.56;27.48;100521.17;1679917;84;20943;-61
2021/09/16 10:46:45;;;;;;;4.20;2.08;;;;;;;22.48;27.80;100518.28;1675317;85;21156;-61
2021/09/16 10:49:28;;;;;;;2.55;1.20;;;;;;;22.44;27.73;100511.25;1680487;85;20926;-60
2021/09/16 10:52:05;;;;;;;6.35;3.22;;;;;;;22.46;27.66;100510.39;1681873;85;20990;-61
2021/09/16 10:54:42;;;;;;;2.55;1.70;;;;;;;22.47;27.79;100513.95;1681559;85;21033;-58
2021/09/16 10:57:15;;;;;;;5.62;1.60;;;;;;;22.39;27.32;100507.20;1678914;85;21006;-59
2021/09/16 10:59:58;;;;;;;3.42;1.40;;;;;;;22.15;27.57;100508.03;1681848;84;21104;-59
2021/09/16 11:02:46;;;;;;;3.40;2.02;;;;;;;21.99;28.16;100498.41;1679285;85;21054;-60
2021/09/16 11:05:17;;;;;;;5.15;2.17;;;;;;;21.93;28.06;100498.22;1681246;85;20982;-60
2021/09/16 11:07:50;;;;;;;4.03;2.00;;;;;;;21.89;28.46;100499.34;1682147;85;20998;-60
2021/09/16 11:10:27;;;;;;;4.03;2.22;;;;;;;21.93;29.00;100501.75;1681884;85;20974;-60
2021/09/16 11:12:57;;;;;;;2.22;2.00;;;;;;;22.03;29.02;100501.63;1682525;85;21125;-60
2021/09/16 11:15:36;;;;;;;3.40;2.08;;;;;;;22.14;29.08;100491.95;1677573;85;20951;-60
2021/09/16 11:18:13;;;;;;;3.42;1.80;;;;;;;22.23;28.99;100494.28;1652199;85;21054;-60
2021/09/16 11:20:45;;;;;;;4.22;2.15;;;;;;;22.34;28.93;100495.00;1681733;84;21013;-61
2021/09/16 11:23:16;;;;;;;4.37;1.70;;;;;;;22.42;28.59;100492.96;1681678;85;21037;-61
2021/09/16 11:25:49;;;;;;;5.03;2.25;;;;;;;22.45;28.08;100495.09;1681238;85;21148;-60
2021/09/16 11:28:17;;;;;;;2.52;2.00;;;;;;;22.40;27.67;100487.80;1681641;85;20943;-61
2021/09/16 11:30:45;;;;;;;5.12;2.50;;;;;;;22.28;28.01;100483.30;1682029;85;20974;-60
2021/09/16 11:33:15;;;;;;;8.38;2.20;;;;;;;22.19;28.32;100480.41;1681414;85;21040;-59
2021/09/16 11:35:42;;;;;;;3.22;1.87;;;;;;;22.18;28.79;100476.61;1681673;84;21002;-60
2021/09/16 11:38:09;;;;;;;2.60;1.67;;;;;;;22.20;28.45;100479.31;1690010;83;21131;-60
2021/09/16 11:40:42;;;;;;;5.20;2.25;;;;;;;22.18;29.02;100478.78;1715502;83;21409;-60
2021/09/16 11:43:11;;;;;;;3.95;2.15;;;;;;;22.19;29.35;100479.05;1716342;83;21218;-61
2021/09/16 11:45:48;;;;;;;5.03;2.30;;;;;;;22.22;28.77;100481.19;1716240;82;20884;-60
2021/09/16 11:48:18;;;;;;;12.63;2.77;;;;;;;22.26;28.51;100473.77;1717053;83;21480;-60
2021/09/16 11:50:52;;;;;;;5.60;2.30;;;;;;;22.25;28.48;100466.71;1716859;83;21780;-61
2021/09/16 11:53:24;;;;;;;5.42;2.40;;;;;;;22.22;28.51;100462.64;1715400;83;21034;-59
2021/09/16 11:56:07;;;;;;;5.55;2.15;;;;;;;22.13;28.42;100463.84;1711591;83;21062;-62
2021/09/16 11:58:36;;;;;;;4.55;2.30;;;;;;;22.05;29.25;100459.87;1711256;82;21470;-60
2021/09/16 12:01:15;;;;;;;4.80;3.12;;;;;;;22.09;29.41;100457.91;1716748;83;21003;-60
2021/09/16 12:03:57;;;;;;;6.08;2.45;;;;;;;22.14;29.15;100461.92;1711227;83;21154;-61
2021/09/16 12:06:20;;;;;;;9.70;2.80;;;;;;;22.17;29.08;100455.34;1696872;83;20950;-59
2021/09/16 12:08:55;;;;;;;8.13;2.90;;;;;;;22.19;28.52;100446.30;1717055;83;21058;-59
2021/09/16 12:11:26;;;;;;;4.53;2.75;;;;;;;22.15;28.34;100446.61;1716099;83;21492;-60
2021/09/16 12:14:03;;;;;;;4.40;2.95;;;;;;;22.12;28.56;100448.57;1712002;83;21579;-61
2021/09/16 12:16:33;;;;;;;10.90;4.33;;;;;;;22.09;28.63;100445.06;1716329;83;21172;-60
2021/09/16 12:19:10;;;;;;;5.65;2.50;;;;;;;22.09;28.74;100448.36;1715716;82;21030;-60
2021/09/16 12:21:43;;;;;;;5.85;2.83;;;;;;;22.04;29.09;100443.22;1716008;83;20954;-60
2021/09/16 12:24:15;;;;;;;4.65;2.55;;;;;;;22.01;28.85;100444.34;1716604;83;21049;-60
2021/09/16 12:26:46;;;;;;;4.15;2.17;;;;;;;21.95;28.88;100446.88;1711232;83;20955;-61
2021/09/16 12:29:27;;;;;;;3.70;2.42;;;;;;;21.88;28.72;100441.23;1716655;82;21780;-60
2021/09/16 12:31:59;;;;;;;6.78;2.33;;;;;;;21.85;28.78;100441.83;1702719;83;20990;-63
2021/09/16 12:34:36;;;;;;;3.65;2.30;;;;;;;21.84;29.13;100438.02;1716318;83;21505;-59
2021/09/16 12:37:06;;;;;;;5.17;2.30;;;;;;;21.84;29.22;100432.00;1712567;83;21031;-62